Airfield :
LOGIN :

Register | Disclaimer

   EN    FR    IT 

 










Legend :    VFR   Marginal VFR   IFR   Intensive IFR   Very Intensive IFR
Visi :
Ceiling :
>= 8 km
>= 3000ft
5 to 8 km
1000 to 3000 ft
1500m to 5 km
500 to 1000 ft
800 to 1500m
200 to 500 ft
< 800m
< 200 ft
Symbols :   Thunderstorms  Fog  Heavy snow  Heavy precipitations  Wind > 20 kt
SIGMETs :     Misc.  Thunderstorms  Icing  Turbulence  Mountain Waves  Volcanic Ashes







- Airport Elevation : 453 ft
- IATA code : SBK
- Download approach charts


LFRT - St Brieuc Armor

CURRENT METAR :
  • 281230Z AUTO 24010KT 160V280 9999 BKN036 BKN046 OVC054 19/13 Q1013

EXPIRED METARs :
  • 281200Z AUTO 24010KT 180V280 9999 BKN032 BKN041 BKN048 20/12 Q1013
  • 281130Z AUTO 24011KT 200V280 9999 FEW031 BKN037 OVC048 19/13 Q1014
  • 281100Z AUTO 24010KT 200V290 9999 SCT032 BKN039 OVC049 19/13 Q1014
  • 281030Z AUTO 24008KT 190V300 9999 FEW034 BKN049 BKN086 20/13 Q1014
  • 281000Z AUTO 24009KT 170V280 9999 BKN030 BKN035 BKN046 20/13 Q1014

Expired Forecast.
No reported NOTAMs for that airfield.



MET'MAP, your aeronautical weather chart ! - Copyright ORBIFLY December 2007 - Disclaimer

ORBIFLY MET'MAP TEAM :

Programming & Development : Alexandra Zaïnal
Concept & Development : Baudouin d'Aumeries
Co-Development & Prog : Marc-Olivier Méhu
Technical & hardware support : Manuel Goepfert

Contact : metmap@orbifly.com




SOURCES & CREDITS :

   NOAA